Observation data for Pampa on 05/25/2019      Previous  Date  Next       Current Mesonet Observations  Soil Data  Daily Summary Page  Observations in Plain Language
KPMS 250500Z 15011KT 16/15 A2997 RMK A01 T01560145  RH  097%=      5-min Rain = 0
KPMS 250505Z 15010KT 16/15 A2997 RMK A01 T01550145  RH  098%=      5-min Rain = 0
KPMS 250510Z 15012KT 16/15 A2997 RMK A01 T01550145  RH  098%=      5-min Rain = 0
KPMS 250515Z 15013KT 16/15 A2997 RMK A01 T01560146  RH  098%=      5-min Rain = 0
KPMS 250520Z 16013KT 16/15 A2997 RMK A01 T01560146  RH  098%=      5-min Rain = 0
KPMS 250525Z 16013KT 16/15 A2996 RMK A01 T01560146  RH  098%=      5-min Rain = 0
KPMS 250530Z 15013KT 16/15 A2996 RMK A01 T01560146  RH  098%=      5-min Rain = 0
KPMS 250535Z 16013KT 16/15 A2996 RMK A01 T01560146  RH  098%=      5-min Rain = 0
KPMS 250540Z 16012KT 16/15 A2996 RMK A01 T01550146  RH  098%=      5-min Rain = 0
KPMS 250545Z 16012KT 16/15 A2996 RMK A01 T01550146  RH  098%=      5-min Rain = 0
KPMS 250550Z 15011KT 16/15 A2997 RMK A01 T01550145  RH  098%=      5-min Rain = 0
KPMS 250555Z 16010KT 15/15 A2997 RMK A01 T01540145  RH  098%=      5-min Rain = 0
KPMS 250600Z 16010KT 15/15 A2997 RMK A01 T01540145  RH  099%=      5-min Rain = 0
KPMS 250605Z 16011KT 15/15 A2997 RMK A01 T01540145  RH  098%=      5-min Rain = 0
KPMS 250610Z 16011KT 16/14 A2997 RMK A01 T01580144  RH  096%=      5-min Rain = 0
KPMS 250615Z 16011KT 16/14 A2997 RMK A01 T01600143  RH  094%=      5-min Rain = 0
KPMS 250620Z 15010KT 16/14 A2997 RMK A01 T01620143  RH  093%=      5-min Rain = 0
KPMS 250625Z 14009KT 16/14 A2997 RMK A01 T01600142  RH  093%=      5-min Rain = 0
KPMS 250630Z 15008KT 16/14 A2997 RMK A01 T01550140  RH  094%=      5-min Rain = 0
KPMS 250635Z 15008KT 15/14 A2997 RMK A01 T01540140  RH  095%=      5-min Rain = 0
KPMS 250640Z 16008KT 16/14 A2996 RMK A01 T01550140  RH  095%=      5-min Rain = 0
KPMS 250645Z 17011KT 16/14 A2996 RMK A01 T01620142  RH  092%=      5-min Rain = 0
KPMS 250650Z 17012KT 17/15 A2996 RMK A01 T01690145  RH  089%=      5-min Rain = 0
KPMS 250655Z 17012KT 17/15 A2996 RMK A01 T01700145  RH  089%=      5-min Rain = 0
KPMS 250700Z 17011G16KT 17/15 A2996 RMK A01 T01710146  RH  089%=      5-min Rain = 0
KPMS 250705Z 17012G17KT 17/15 A2996 RMK A01 T01710147  RH  089%=      5-min Rain = 0
KPMS 250710Z 18011KT 17/15 A2996 RMK A01 T01710147  RH  090%=      5-min Rain = 0
KPMS 250715Z 18011KT 17/15 A2996 RMK A01 T01700147  RH  090%=      5-min Rain = 0
KPMS 250720Z 17012KT 17/15 A2996 RMK A01 T01700148  RH  091%=      5-min Rain = 0
KPMS 250725Z 18013G18KT 17/15 A2996 RMK A01 T01720150  RH  091%=      5-min Rain = 0
KPMS 250730Z 17014KT 17/15 A2996 RMK A01 T01730151  RH  091%=      5-min Rain = 0
KPMS 250735Z 18014KT 17/15 A2996 RMK A01 T01740153  RH  091%=      5-min Rain = 0
KPMS 250740Z 17014G19KT 18/15 A2995 RMK A01 T01760154  RH  091%=      5-min Rain = 0
KPMS 250745Z 17015KT 18/16 A2995 RMK A01 T01780156  RH  091%=      5-min Rain = 0
KPMS 250750Z 16016KT 18/16 A2995 RMK A01 T01800157  RH  091%=      5-min Rain = 0
KPMS 250755Z 16016G22KT 18/16 A2995 RMK A01 T01820158  RH  090%=      5-min Rain = 0
KPMS 250800Z 17016G21KT 18/16 A2995 RMK A01 T01820158  RH  090%=      5-min Rain = 0
KPMS 250805Z 17018G23KT 18/16 A2996 RMK A01 T01820158  RH  090%=      5-min Rain = 0
KPMS 250810Z 16017G22KT 18/16 A2996 RMK A01 T01820159  RH  090%=      5-min Rain = 0
KPMS 250815Z 17016G21KT 18/16 A2996 RMK A01 T01820159  RH  091%=      5-min Rain = 0
KPMS 250820Z 17017G23KT 18/16 A2996 RMK A01 T01820159  RH  091%=      5-min Rain = 0
KPMS 250825Z 16017G22KT 18/16 A2996 RMK A01 T01820159  RH  091%=      5-min Rain = 0
KPMS 250830Z 16017G23KT 18/16 A2996 RMK A01 T01820160  RH  091%=      5-min Rain = 0
KPMS 250835Z 16016G22KT 18/16 A2996 RMK A01 T01820160  RH  091%=      5-min Rain = 0
KPMS 250840Z 16018KT 18/16 A2996 RMK A01 T01820160  RH  091%=      5-min Rain = 0
KPMS 250845Z 16019G24KT 18/16 A2996 RMK A01 T01810159  RH  091%=      5-min Rain = 0
KPMS 250850Z 16019G24KT 18/16 A2995 RMK A01 T01800159  RH  092%=      5-min Rain = 0
KPMS 250855Z 15018G26KT 18/16 A2995 RMK A01 T01800159  RH  092%=      5-min Rain = 0
KPMS 250900Z 16019G26KT 18/16 A2995 RMK A01 T01790159  RH  092%=      5-min Rain = 0
KPMS 250905Z 16018G26KT 18/16 A2995 RMK A01 T01790159  RH  093%=      5-min Rain = 0
KPMS 250910Z 16018KT 18/16 A2995 RMK A01 T01780159  RH  093%=      5-min Rain = 0
KPMS 250915Z 16016KT 18/16 A2996 RMK A01 T01780160  RH  093%=      5-min Rain = 0
KPMS 250920Z 16018G24KT 18/16 A2996 RMK A01 T01770160  RH  094%=      5-min Rain = 0
KPMS 250925Z 16017G24KT 18/16 A2996 RMK A01 T01770161  RH  094%=      5-min Rain = 0
KPMS 250930Z 16017G22KT 18/16 A2995 RMK A01 T01760161  RH  095%=      5-min Rain = 0
KPMS 250935Z 16018G23KT 18/16 A2995 RMK A01 T01750160  RH  095%=      5-min Rain = 0
KPMS 250940Z 16018G24KT 18/16 A2995 RMK A01 T01750161  RH  096%=      5-min Rain = 0
KPMS 250945Z 16017G22KT 17/16 A2995 RMK A01 T01740161  RH  096%=      5-min Rain = 0
KPMS 250950Z 16017G22KT 17/16 A2995 RMK A01 T01740161  RH  097%=      5-min Rain = 0
KPMS 250955Z 16018G24KT 17/16 A2996 RMK A01 T01730161  RH  097%=      5-min Rain = 0
KPMS 251000Z 16019G26KT 17/16 A2996 RMK A01 T01730162  RH  097%=      5-min Rain = 0
KPMS 251005Z 16019KT 17/16 A2996 RMK A01 T01730162  RH  098%=      5-min Rain = 0
KPMS 251010Z 16017G24KT 17/16 A2996 RMK A01 T01720162  RH  098%=      5-min Rain = 0
KPMS 251015Z 16017KT 17/16 A2996 RMK A01 T01720162  RH  098%=      5-min Rain = 0
KPMS 251020Z 16015G21KT 17/16 A2996 RMK A01 T01720162  RH  099%=      5-min Rain = 0
KPMS 251025Z 16015KT 17/16 A2996 RMK A01 T01710162  RH  099%=      5-min Rain = 0
KPMS 251030Z 16016G23KT 17/16 A2996 RMK A01 T01710162  RH  099%=      5-min Rain = 0
KPMS 251035Z 16015G20KT 17/16 A2996 RMK A01 T01710163  RH  099%=      5-min Rain = 0
KPMS 251040Z 16016G21KT 17/16 A2996 RMK A01 T01710163  RH  099%=      5-min Rain = 0
KPMS 251045Z 16015G20KT 17/16 A2996 RMK A01 T01710163  RH  099%=      5-min Rain = 0
KPMS 251050Z 16016G21KT 17/16 A2996 RMK A01 T01710163  RH  100%=      5-min Rain = 0
KPMS 251055Z 16016G22KT 17/16 A2996 RMK A01 T01710163  RH  100%=      5-min Rain = 0
KPMS 251100Z 16018KT 17/16 A2996 RMK A01 T01710163  RH  100%=      5-min Rain = 0
KPMS 251105Z 16015G20KT 17/16 A2996 RMK A01 T01710163  RH  100%=      5-min Rain = 0
KPMS 251110Z 16014G20KT 17/16 A2996 RMK A01 T01710163  RH  100%=      5-min Rain = 0
KPMS 251115Z 16015KT 17/16 A2996 RMK A01 T01700163  RH  100%=      5-min Rain = 0
KPMS 251120Z 16014G20KT 17/16 A2996 RMK A01 T01710163  RH  100%=      5-min Rain = 0
KPMS 251125Z 16014G19KT 17/16 A2997 RMK A01 T01710163  RH  100%=      5-min Rain = 0
KPMS 251130Z 16014KT 17/16 A2997 RMK A01 T01710164  RH  100%=      5-min Rain = 0
KPMS 251135Z 16014G19KT 17/16 A2997 RMK A01 T01720164  RH  100%=      5-min Rain = 0
KPMS 251140Z 16014KT 17/17 A2997 RMK A01 T01730165  RH  100%=      5-min Rain = 0
KPMS 251145Z 16015KT 17/17 A2997 RMK A01 T01730165  RH  100%=      5-min Rain = 0
KPMS 251150Z 16013KT 17/17 A2998 RMK A01 T01730166  RH  100%=      5-min Rain = 0
KPMS 251155Z 17013KT 17/17 A2998 RMK A01 T01740166  RH  100%=      5-min Rain = 0
KPMS 251200Z 17014G19KT 17/17 A2998 RMK A01 T01740166  RH  100%=      5-min Rain = 0
KPMS 251205Z 17013KT 17/17 A2998 RMK A01 T01740166  RH  100%=      5-min Rain = 0
KPMS 251210Z 17013G18KT 18/17 A2998 RMK A01 T01750167  RH  100%=      5-min Rain = 0
KPMS 251215Z 17013KT 18/17 A2998 RMK A01 T01750167  RH  100%=      5-min Rain = 0
KPMS 251220Z 17013G21KT 18/17 A2999 RMK A01 T01760168  RH  100%=      5-min Rain = 0
KPMS 251225Z 17013KT 18/17 A2999 RMK A01 T01760168  RH  100%=      5-min Rain = 0
KPMS 251230Z 17013G20KT 18/17 A2999 RMK A01 T01770169  RH  100%=      5-min Rain = 0
KPMS 251235Z 17014G19KT 18/17 A2999 RMK A01 T01770169  RH  100%=      5-min Rain = 0
KPMS 251240Z 17015G20KT 18/17 A2999 RMK A01 T01770169  RH  100%=      5-min Rain = 0
KPMS 251245Z 17013G19KT 18/17 A2999 RMK A01 T01780170  RH  100%=      5-min Rain = 0
KPMS 251250Z 17014G19KT 18/17 A2999 RMK A01 T01790171  RH  100%=      5-min Rain = 0
KPMS 251255Z 17014G20KT 18/17 A2999 RMK A01 T01790171  RH  100%=      5-min Rain = 0
KPMS 251300Z 17014KT 18/17 A2999 RMK A01 T01800171  RH  100%=      5-min Rain = 0
KPMS 251305Z 17014G20KT 18/17 A2999 RMK A01 T01800171  RH  099%=      5-min Rain = 0
KPMS 251310Z 17014G20KT 18/17 A2999 RMK A01 T01810172  RH  099%=      5-min Rain = 0
KPMS 251315Z 17015G20KT 18/17 A2999 RMK A01 T01820171  RH  098%=      5-min Rain = 0
KPMS 251320Z 17014KT 18/17 A2999 RMK A01 T01830172  RH  098%=      5-min Rain = 0
KPMS 251325Z 17014G19KT 18/17 A2999 RMK A01 T01830172  RH  098%=      5-min Rain = 0
KPMS 251330Z 17015KT 18/17 A30 RMK A01 T01840172  RH  098%=      5-min Rain = 0
KPMS 251335Z 17014G19KT 19/17 A30 RMK A01 T01860173  RH  097%=      5-min Rain = 0
KPMS 251340Z 17016KT 19/17 A30 RMK A01 T01870173  RH  097%=      5-min Rain = 0
KPMS 251345Z 17014KT 19/17 A30 RMK A01 T01870173  RH  097%=      5-min Rain = 0
KPMS 251350Z 17014KT 19/17 A30 RMK A01 T01880174  RH  096%=      5-min Rain = 0
KPMS 251355Z 17016G22KT 19/17 A30 RMK A01 T01880174  RH  096%=      5-min Rain = 0
KPMS 251400Z 17014G21KT 19/18 A30 RMK A01 T01890175  RH  096%=      5-min Rain = 0
KPMS 251405Z 18013G20KT 19/18 A3001 RMK A01 T01900175  RH  096%=      5-min Rain = 0
KPMS 251410Z 18015G21KT 19/18 A3001 RMK A01 T01900175  RH  096%=      5-min Rain = 0
KPMS 251415Z 18012G17KT 19/18 A3001 RMK A01 T01900175  RH  096%=      5-min Rain = 0
KPMS 251420Z 18013G18KT 19/18 A3001 RMK A01 T01900175  RH  096%=      5-min Rain = 0
KPMS 251425Z 18014G20KT 19/18 A3001 RMK A01 T01910176  RH  096%=      5-min Rain = 0
KPMS 251430Z 18014G19KT 19/18 A3002 RMK A01 T01930176  RH  095%=      5-min Rain = 0
KPMS 251435Z 18015G21KT 19/18 A3002 RMK A01 T01940177  RH  095%=      5-min Rain = 0
KPMS 251440Z 18013G21KT 20/18 A3002 RMK A01 T01950177  RH  094%=      5-min Rain = 0
KPMS 251445Z 18013KT 20/18 A3002 RMK A01 T01960178  RH  094%=      5-min Rain = 0
KPMS 251450Z 18013KT 20/18 A3002 RMK A01 T01970178  RH  094%=      5-min Rain = 0
KPMS 251455Z 18015KT 20/18 A3002 RMK A01 T01960177  RH  093%=      5-min Rain = 0
KPMS 251500Z 18014G19KT 20/18 A3002 RMK A01 T01970178  RH  093%=      5-min Rain = 0
KPMS 251505Z 18013G19KT 20/18 A3003 RMK A01 T01980179  RH  093%=      5-min Rain = 0
KPMS 251510Z 18012G17KT 20/18 A3003 RMK A01 T01990179  RH  093%=      5-min Rain = 0
KPMS 251515Z 18013G18KT 20/18 A3003 RMK A01 T01990178  RH  093%=      5-min Rain = 0
KPMS 251520Z 18015G20KT 20/18 A3003 RMK A01 T01990178  RH  092%=      5-min Rain = 0
KPMS 251525Z 18012KT 20/18 A3003 RMK A01 T02010179  RH  092%=      5-min Rain = 0
KPMS 251530Z 18014G19KT 20/18 A3003 RMK A01 T02020179  RH  091%=      5-min Rain = 0
KPMS 251535Z 18013KT 20/18 A3003 RMK A01 T02030179  RH  091%=      5-min Rain = 0
KPMS 251540Z 18011G18KT 21/18 A3003 RMK A01 T02050181  RH  090%=      5-min Rain = 0
KPMS 251545Z 19012KT 21/18 A3003 RMK A01 T02070181  RH  089%=      5-min Rain = 0
KPMS 251550Z 19014KT 21/18 A3003 RMK A01 T02080180  RH  089%=      5-min Rain = 0
KPMS 251555Z 19013G19KT 21/18 A3003 RMK A01 T02100181  RH  088%=      5-min Rain = 0
KPMS 251600Z 19013KT 21/18 A3003 RMK A01 T02130182  RH  087%=      5-min Rain = 0
KPMS 251605Z 19013KT 21/18 A3003 RMK A01 T02130182  RH  087%=      5-min Rain = 0
KPMS 251610Z 18014KT 21/18 A3003 RMK A01 T02130182  RH  087%=      5-min Rain = 0
KPMS 251615Z 19015KT 21/18 A3003 RMK A01 T02120181  RH  087%=      5-min Rain = 0
KPMS 251620Z 19014KT 21/18 A3003 RMK A01 T02120182  RH  087%=      5-min Rain = 0
KPMS 251625Z 19014G19KT 21/18 A3003 RMK A01 T02140182  RH  087%=      5-min Rain = 0
KPMS 251630Z 19014G19KT 22/18 A3003 RMK A01 T02160182  RH  086%=      5-min Rain = 0
KPMS 251635Z 19013G19KT 22/18 A3003 RMK A01 T02170182  RH  085%=      5-min Rain = 0
KPMS 251640Z 19013KT 22/18 A3003 RMK A01 T02150181  RH  085%=      5-min Rain = 0
KPMS 251645Z 18012KT 22/18 A3003 RMK A01 T02160182  RH  086%=      5-min Rain = 0
KPMS 251650Z 18013G18KT 22/18 A3003 RMK A01 T02150182  RH  086%=      5-min Rain = 0
KPMS 251655Z 19012G17KT 22/18 A3003 RMK A01 T02150182  RH  086%=      5-min Rain = 0
KPMS 251700Z 19011KT 22/18 A3003 RMK A01 T02160182  RH  085%=      5-min Rain = 0
KPMS 251705Z 19012KT 22/18 A3003 RMK A01 T02170182  RH  085%=      5-min Rain = 0
KPMS 251710Z 19013KT 22/18 A3003 RMK A01 T02160181  RH  085%=      5-min Rain = 0
KPMS 251715Z 18012G17KT 21/18 A3003 RMK A01 T02140181  RH  086%=      5-min Rain = 0
KPMS 251720Z 18012G17KT 21/18 A3003 RMK A01 T02130182  RH  087%=      5-min Rain = 0
KPMS 251725Z 18011KT 21/18 A3003 RMK A01 T02130183  RH  087%=      5-min Rain = 0
KPMS 251730Z 19012KT 22/18 A3003 RMK A01 T02160184  RH  086%=      5-min Rain = 0
KPMS 251735Z 19010KT 21/18 A3003 RMK A01 T02140183  RH  087%=      5-min Rain = 0
KPMS 251740Z 18011KT 22/18 A3003 RMK A01 T02150184  RH  087%=      5-min Rain = 0
KPMS 251745Z 19012KT 22/18 A3003 RMK A01 T02180184  RH  086%=      5-min Rain = 0
KPMS 251750Z 18013KT 22/18 A3003 RMK A01 T02190184  RH  085%=      5-min Rain = 0
KPMS 251755Z 19013G18KT 22/18 A3002 RMK A01 T02210184  RH  084%=      5-min Rain = 0
KPMS 251800Z 19011G18KT 23/19 A3002 RMK A01 T02290189  RH  082%=      5-min Rain = 0
KPMS 251805Z 18014KT 24/19 A3002 RMK A01 T02360189  RH  079%=      5-min Rain = 0
KPMS 251810Z 18011KT 23/19 A3001 RMK A01 T02340188  RH  080%=      5-min Rain = 0
KPMS 251815Z 19012G17KT 23/19 A3001 RMK A01 T02320185  RH  079%=      5-min Rain = 0
KPMS 251820Z 17012G18KT 23/19 A3001 RMK A01 T02290185  RH  080%=      5-min Rain = 0
KPMS 251825Z 18013G19KT 23/18 A3001 RMK A01 T02300184  RH  079%=      5-min Rain = 0
KPMS 251830Z 17011KT 23/19 A3001 RMK A01 T02330187  RH  080%=      5-min Rain = 0
KPMS 251835Z 18013KT 23/19 A30 RMK A01 T02340185  RH  078%=      5-min Rain = 0
KPMS 251840Z 18015KT 24/18 A30 RMK A01 T02350184  RH  077%=      5-min Rain = 0
KPMS 251845Z 18015G20KT 23/19 A3001 RMK A01 T02320185  RH  079%=      5-min Rain = 0
KPMS 251850Z 18014G19KT 23/19 A3001 RMK A01 T02340188  RH  079%=      5-min Rain = 0
KPMS 251855Z 18014G19KT 24/19 A30 RMK A01 T02350186  RH  078%=      5-min Rain = 0
KPMS 251900Z 19015KT 23/19 A30 RMK A01 T02290185  RH  080%=      5-min Rain = 0
KPMS 251905Z 17012G18KT 23/19 A2999 RMK A01 T02300186  RH  081%=      5-min Rain = 0
KPMS 251910Z 17014KT 23/19 A2999 RMK A01 T02330187  RH  080%=      5-min Rain = 0
KPMS 251915Z 17012G18KT 24/19 A2999 RMK A01 T02350188  RH  079%=      5-min Rain = 0
KPMS 251920Z 17012G17KT 23/19 A2998 RMK A01 T02340188  RH  080%=      5-min Rain = 0
KPMS 251925Z 17013KT 23/19 A2998 RMK A01 T02320187  RH  080%=      5-min Rain = 0
KPMS 251930Z 17014G21KT 23/19 A2998 RMK A01 T02320186  RH  080%=      5-min Rain = 0
KPMS 251935Z 17015KT 23/19 A2998 RMK A01 T02310186  RH  080%=      5-min Rain = 0
KPMS 251940Z 16013G18KT 23/19 A2997 RMK A01 T02270187  RH  083%=      5-min Rain = 0
KPMS 251945Z 15012KT 22/19 A2997 RMK A01 T02240188  RH  084%=      5-min Rain = 0
KPMS 251950Z 14014KT 22/19 A2997 RMK A01 T02220187  RH  085%=      5-min Rain = 0
KPMS 251955Z 15013KT 22/19 A2996 RMK A01 T02220187  RH  086%=      5-min Rain = 0
KPMS 252000Z 15013KT 22/19 A2996 RMK A01 T02200186  RH  086%=      5-min Rain = 0
KPMS 252005Z 15014KT 22/19 A2995 RMK A01 T02180187  RH  087%=      5-min Rain = 0
KPMS 252010Z 15012KT 22/19 A2995 RMK A01 T02160187  RH  088%=      5-min Rain = 0
KPMS 252015Z 15013KT 22/19 A2996 RMK A01 T02150188  RH  089%=      5-min Rain = 0
KPMS 252020Z 15013KT 21/19 A2996 RMK A01 T02140188  RH  090%=      5-min Rain = 0
KPMS 252025Z 15014G20KT 21/19 A2996 RMK A01 T02130189  RH  091%=      5-min Rain = 0
KPMS 252030Z 16011KT 21/19 A2997 RMK A01 T02120190  RH  093%=      5-min Rain = 0
KPMS 252035Z 17010KT 21/19 A2998 RMK A01 T02110192  RH  094%=      5-min Rain = 0
KPMS 252040Z 17008KT 21/19 A2998 RMK A01 T02100193  RH  095%=      5-min Rain = 0.01
KPMS 252045Z 16009G15KT 21/19 A2998 RMK A01 T02110193  RH  095%=      5-min Rain = 0
KPMS 252050Z 17010G15KT 21/19 A2998 RMK A01 T02120194  RH  095%=      5-min Rain = 0
KPMS 252055Z 16011KT 21/19 A2997 RMK A01 T02120193  RH  094%=      5-min Rain = 0.01
KPMS 252100Z 14012G18KT 21/19 A2996 RMK A01 T02100193  RH  095%=      5-min Rain = 0
KPMS 252105Z 16011G16KT 21/19 A2996 RMK A01 T02100192  RH  095%=      5-min Rain = 0
KPMS 252110Z 18009KT 21/19 A2998 RMK A01 T02090192  RH  095%=      5-min Rain = 0.01
KPMS 252115Z 18008KT 21/19 A2998 RMK A01 T02090192  RH  095%=      5-min Rain = 0
KPMS 252120Z 19007KT 21/19 A2998 RMK A01 T02080191  RH  095%=      5-min Rain = 0.01
KPMS 252125Z 19009G14KT 21/19 A2999 RMK A01 T02080192  RH  096%=      5-min Rain = 0.02
KPMS 252130Z 19011G16KT 21/19 A2999 RMK A01 T02070192  RH  096%=      5-min Rain = 0.07
KPMS 252135Z 17013KT 21/19 A2998 RMK A01 T02050191  RH  097%=      5-min Rain = 0.07
KPMS 252140Z 16016KT 20/18 A2995 RMK A01 T02000184  RH  095%=      5-min Rain = 0.02
KPMS 252145Z 16017KT 20/18 A2996 RMK A01 T02000184  RH  095%=      5-min Rain = 0
KPMS 252150Z 18011G19KT 20/18 A2998 RMK A01 T01970178  RH  094%=      5-min Rain = 0
KPMS 252155Z 30011G27KT 19/17 A2998 RMK A01 T01940173  RH  092%=      5-min Rain = 0
KPMS 252200Z 30018G31KT 17/14 A30 RMK A01 T01720144  RH  087%=      5-min Rain = 0
KPMS 252205Z 31008G18KT 17/14 A3001 RMK A01 T01680141  RH  087%=      5-min Rain = 0.01
KPMS 252210Z 32015KT 16/14 A3002 RMK A01 T01640138  RH  088%=      5-min Rain = 0
KPMS 252215Z 31018KT 16/13 A3002 RMK A01 T01600134  RH  088%=      5-min Rain = 0
KPMS 252220Z 32016KT 16/13 A3001 RMK A01 T01580134  RH  090%=      5-min Rain = 0
KPMS 252225Z 32012G18KT 16/14 A30 RMK A01 T01570135  RH  091%=      5-min Rain = 0
KPMS 252230Z 33010G15KT 16/14 A30 RMK A01 T01570136  RH  091%=      5-min Rain = 0
KPMS 252235Z 02006KT 16/14 A30 RMK A01 T01550136  RH  092%=      5-min Rain = 0.01
KPMS 252240Z 07008KT 15/14 A2998 RMK A01 T01540137  RH  094%=      5-min Rain = 0.01
KPMS 252245Z 31003KT 15/14 A30 RMK A01 T01530138  RH  094%=      5-min Rain = 0.01
KPMS 252250Z 04005G18KT 15/14 A2997 RMK A01 T01520137  RH  095%=      5-min Rain = 0
KPMS 252255Z 10008G14KT 15/14 A2999 RMK A01 T01520138  RH  096%=      5-min Rain = 0.01
KPMS 252300Z 11009KT 15/14 A2998 RMK A01 T01520138  RH  096%=      5-min Rain = 0.01
KPMS 252305Z 11006KT 15/14 A2997 RMK A01 T01520138  RH  096%=      5-min Rain = 0
KPMS 252310Z 07008KT 15/14 A2994 RMK A01 T01510138  RH  096%=      5-min Rain = 0
KPMS 252315Z 09004G9KT 15/14 A2994 RMK A01 T01520138  RH  096%=      5-min Rain = 0
KPMS 252320Z 04004KT 15/14 A2993 RMK A01 T01520139  RH  096%=      5-min Rain = 0
KPMS 252325Z 07003KT 15/14 A2992 RMK A01 T01520140  RH  096%=      5-min Rain = 0
KPMS 252330Z 14006KT 15/14 A2994 RMK A01 T01540142  RH  096%=      5-min Rain = 0
KPMS 252335Z 14008KT 16/14 A2994 RMK A01 T01550142  RH  096%=      5-min Rain = 0.01
KPMS 252340Z 16009G17KT 16/14 A2995 RMK A01 T01560142  RH  096%=      5-min Rain = 0.01
KPMS 252345Z 15011G16KT 16/14 A2994 RMK A01 T01570143  RH  095%=      5-min Rain = 0.04
KPMS 252350Z 14014KT 16/14 A2994 RMK A01 T01560142  RH  095%=      5-min Rain = 0.07
KPMS 252355Z 15011KT 16/14 A2993 RMK A01 T01570142  RH  095%=      5-min Rain = 0
KPMS 260000Z 14010KT 16/15 A2992 RMK A01 T01600146  RH  096%=      5-min Rain = 0
KPMS 260005Z 14011KT 16/15 A2992 RMK A01 T01610149  RH  096%=      5-min Rain = 0
KPMS 260010Z 15010KT 16/15 A2992 RMK A01 T01610150  RH  098%=      5-min Rain = 0
KPMS 260015Z 15009KT 16/15 A2992 RMK A01 T01620152  RH  098%=      5-min Rain = 0
KPMS 260020Z 15009KT 16/15 A2992 RMK A01 T01630152  RH  098%=      5-min Rain = 0
KPMS 260025Z 15008KT 16/15 A2992 RMK A01 T01620152  RH  098%=      5-min Rain = 0
KPMS 260030Z 15011KT 16/15 A2992 RMK A01 T01620152  RH  098%=      5-min Rain = 0
KPMS 260035Z 15010KT 16/15 A2992 RMK A01 T01620152  RH  098%=      5-min Rain = 0
KPMS 260040Z 16010KT 16/15 A2992 RMK A01 T01630153  RH  098%=      5-min Rain = 0
KPMS 260045Z 15012KT 16/15 A2991 RMK A01 T01640153  RH  097%=      5-min Rain = 0
KPMS 260050Z 15012KT 17/15 A2992 RMK A01 T01650153  RH  097%=      5-min Rain = 0
KPMS 260055Z 15013KT 16/15 A2993 RMK A01 T01640152  RH  097%=      5-min Rain = 0
KPMS 260100Z 15014KT 16/15 A2993 RMK A01 T01610151  RH  098%=      5-min Rain = 0
KPMS 260105Z 14015KT 16/15 A2993 RMK A01 T01600150  RH  098%=      5-min Rain = 0
KPMS 260110Z 14012KT 16/15 A2992 RMK A01 T01580148  RH  098%=      5-min Rain = 0
KPMS 260115Z 13012KT 16/15 A2991 RMK A01 T01570148  RH  099%=      5-min Rain = 0
KPMS 260120Z 13011KT 16/15 A299 RMK A01 T01570148  RH  099%=      5-min Rain = 0
KPMS 260125Z 13012KT 16/15 A2989 RMK A01 T01570147  RH  098%=      5-min Rain = 0
KPMS 260130Z 13010KT 16/15 A299 RMK A01 T01570148  RH  098%=      5-min Rain = 0
KPMS 260135Z 12009KT 16/15 A2989 RMK A01 T01570147  RH  098%=      5-min Rain = 0
KPMS 260140Z 12007KT 16/15 A299 RMK A01 T01560147  RH  098%=      5-min Rain = 0
KPMS 260145Z 12006KT 16/15 A299 RMK A01 T01570147  RH  098%=      5-min Rain = 0
KPMS 260150Z 11003KT 16/15 A299 RMK A01 T01570148  RH  098%=      5-min Rain = 0
KPMS 260155Z 10004KT 16/15 A299 RMK A01 T01570147  RH  098%=      5-min Rain = 0
KPMS 260200Z 10003KT 16/15 A299 RMK A01 T01560146  RH  098%=      5-min Rain = 0
KPMS 260205Z 11003KT 15/15 A2991 RMK A01 T01540145  RH  098%=      5-min Rain = 0
KPMS 260210Z 12002KT 15/14 A2992 RMK A01 T01530144  RH  098%=      5-min Rain = 0
KPMS 260215Z 11002KT 15/14 A2992 RMK A01 T01520143  RH  098%=      5-min Rain = 0
KPMS 260220Z 09001KT 15/14 A2992 RMK A01 T01500141  RH  098%=      5-min Rain = 0
KPMS 260225Z 01003KT 15/14 A2992 RMK A01 T01490140  RH  099%=      5-min Rain = 0
KPMS 260230Z 01004KT 15/14 A2992 RMK A01 T01450136  RH  099%=      5-min Rain = 0
KPMS 260235Z 01005KT 15/14 A2992 RMK A01 T01450137  RH  099%=      5-min Rain = 0
KPMS 260240Z 03004KT 14/14 A2992 RMK A01 T01430135  RH  099%=      5-min Rain = 0
KPMS 260245Z 03003KT 14/14 A2992 RMK A01 T01420135  RH  099%=      5-min Rain = 0
KPMS 260250Z 03006KT 14/13 A2993 RMK A01 T01400133  RH  099%=      5-min Rain = 0
KPMS 260255Z 03007KT 14/14 A2994 RMK A01 T01410135  RH  100%=      5-min Rain = 0
KPMS 260300Z 03007KT 14/14 A2994 RMK A01 T01430136  RH  100%=      5-min Rain = 0
KPMS 260305Z 03006KT 14/14 A2995 RMK A01 T01440137  RH  100%=      5-min Rain = 0
KPMS 260310Z 02003KT 15/14 A2995 RMK A01 T01460139  RH  100%=      5-min Rain = 0
KPMS 260315Z 03004KT 16/15 A2995 RMK A01 T01550148  RH  100%=      5-min Rain = 0
KPMS 260320Z 05003KT 15/14 A2996 RMK A01 T01510143  RH  099%=      5-min Rain = 0
KPMS 260325Z 06003KT 15/14 A2996 RMK A01 T01490139  RH  098%=      5-min Rain = 0
KPMS 260330Z 07005KT 15/14 A2996 RMK A01 T01500141  RH  098%=      5-min Rain = 0
KPMS 260335Z 07006KT 15/14 A2997 RMK A01 T01510141  RH  097%=      5-min Rain = 0
KPMS 260340Z 08005KT 15/14 A2997 RMK A01 T01500139  RH  097%=      5-min Rain = 0
KPMS 260345Z 09004KT 15/14 A2997 RMK A01 T01500139  RH  097%=      5-min Rain = 0
KPMS 260350Z 09005KT 15/14 A2997 RMK A01 T01490138  RH  097%=      5-min Rain = 0
KPMS 260355Z 10005KT 15/14 A2997 RMK A01 T01500140  RH  098%=      5-min Rain = 0
KPMS 260400Z 09006KT 15/14 A2997 RMK A01 T01510140  RH  097%=      5-min Rain = 0
KPMS 260405Z 09007KT 15/14 A2997 RMK A01 T01510140  RH  097%=      5-min Rain = 0
KPMS 260410Z 11007KT 15/14 A2997 RMK A01 T01510140  RH  097%=      5-min Rain = 0
KPMS 260415Z 12007KT 15/14 A2997 RMK A01 T01530142  RH  098%=      5-min Rain = 0
KPMS 260420Z 13008KT 16/15 A2997 RMK A01 T01580147  RH  097%=      5-min Rain = 0
KPMS 260425Z 13008KT 16/15 A2997 RMK A01 T01610146  RH  095%=      5-min Rain = 0
KPMS 260430Z 13008KT 16/15 A2997 RMK A01 T01620147  RH  095%=      5-min Rain = 0
KPMS 260435Z 13009KT 16/15 A2997 RMK A01 T01620147  RH  095%=      5-min Rain = 0
KPMS 260440Z 13009KT 16/15 A2997 RMK A01 T01610148  RH  096%=      5-min Rain = 0
KPMS 260445Z 13009KT 16/15 A2997 RMK A01 T01620149  RH  096%=      5-min Rain = 0
KPMS 260450Z 14009KT 16/15 A2997 RMK A01 T01620150  RH  097%=      5-min Rain = 0
KPMS 260455Z 14010KT 16/15 A2997 RMK A01 T01620150  RH  097%=      5-min Rain = 0

Page generated in 0.0129 seconds.